createdAt,value
2022-08-05T00:00:09.880Z,22.8
2022-08-05T00:01:20.494Z,22.7
2022-08-05T00:02:11.932Z,22.7
2022-08-05T00:03:15.591Z,22.7
2022-08-05T00:04:13.768Z,22.6
2022-08-05T00:05:27.303Z,22.6
2022-08-05T00:06:23.462Z,22.5
2022-08-05T00:07:21.949Z,22.5
2022-08-05T00:08:19.735Z,22.5
2022-08-05T00:09:19.348Z,22.5
2022-08-05T00:10:19.760Z,22.4
2022-08-05T00:11:27.984Z,22.5
2022-08-05T00:12:21.783Z,22.4
2022-08-05T00:13:31.317Z,22.5
2022-08-05T00:14:26.530Z,22.3
2022-08-05T00:15:54.766Z,22.2
2022-08-05T00:16:35.788Z,22.3
2022-08-05T00:17:26.763Z,22.3
2022-08-05T00:18:27.901Z,22.4
2022-08-05T00:19:33.003Z,22.4
2022-08-05T00:20:29.802Z,22.4
2022-08-05T00:21:30.858Z,22.5
2022-08-05T00:22:31.760Z,22.5
2022-08-05T00:23:44.210Z,22.4
2022-08-05T00:24:33.779Z,22.3
2022-08-05T00:25:45.449Z,22.3
2022-08-05T00:26:35.799Z,22.3
2022-08-05T00:27:36.751Z,22.3
2022-08-05T00:28:37.841Z,22.3
2022-08-05T00:29:38.771Z,22.2
2022-08-05T00:30:39.800Z,22.2
2022-08-05T00:31:41.755Z,22.1
2022-08-05T00:32:41.779Z,22
2022-08-05T00:34:43.249Z,21.9
2022-08-05T00:34:55.062Z,22
2022-08-05T00:35:47.869Z,22
2022-08-05T00:37:09.582Z,21.9
2022-08-05T00:37:50.582Z,21.9
2022-08-05T00:38:47.820Z,21.8
2022-08-05T00:39:57.597Z,21.8
2022-08-05T00:40:51.864Z,21.7
2022-08-05T00:41:52.321Z,21.7
2022-08-05T00:42:51.800Z,21.7
2022-08-05T00:43:52.800Z,21.7
2022-08-05T00:44:53.843Z,21.8
2022-08-05T00:45:54.828Z,21.9
2022-08-05T00:47:01.745Z,21.8
2022-08-05T00:48:05.848Z,21.8
2022-08-05T00:48:57.827Z,21.7
2022-08-05T00:49:58.799Z,21.7
2022-08-05T00:50:59.799Z,21.8
2022-08-05T00:52:00.840Z,21.8
2022-08-05T00:53:02.799Z,21.8
2022-08-05T00:54:03.901Z,21.9
2022-08-05T00:55:04.865Z,21.9
2022-08-05T00:56:07.796Z,21.8
2022-08-05T00:57:06.880Z,21.9
2022-08-05T00:58:07.739Z,21.8
2022-08-05T00:59:08.834Z,21.8
2022-08-05T01:00:11.091Z,21.6
2022-08-05T01:03:09.736Z,21.6
2022-08-05T01:04:13.620Z,21.5
2022-08-05T01:05:11.936Z,21.4
2022-08-05T01:06:14.278Z,21.5
2022-08-05T01:07:13.959Z,21.5
2022-08-05T01:08:30.089Z,21.5
2022-08-05T01:09:17.348Z,21.5
2022-08-05T01:10:16.815Z,21.5
2022-08-05T01:11:21.676Z,21.5
2022-08-05T01:12:19.200Z,21.6
2022-08-05T01:13:22.332Z,21.5
2022-08-05T01:14:27.756Z,21.5
2022-08-05T01:15:35.925Z,21.5
2022-08-05T01:16:26.170Z,21.5
2022-08-05T01:17:24.112Z,21.5
2022-08-05T01:18:24.795Z,21.4
2022-08-05T01:19:46.418Z,21.3
2022-08-05T01:20:27.045Z,21.2
2022-08-05T01:21:37.934Z,21.2
2022-08-05T01:22:31.792Z,21.2
2022-08-05T01:23:34.679Z,21.2
2022-08-05T01:24:34.806Z,21.2
2022-08-05T01:25:39.566Z,21.2
2022-08-05T01:26:36.816Z,21.1
2022-08-05T01:27:41.044Z,21.1
2022-08-05T01:28:39.388Z,21.1
2022-08-05T01:29:39.847Z,21.2
2022-08-05T01:30:40.798Z,21.2
2022-08-05T01:31:42.524Z,21.2
2022-08-05T01:32:42.801Z,21.3
2022-08-05T01:33:49.093Z,21.3
2022-08-05T01:34:44.856Z,21.2
2022-08-05T01:35:50.473Z,21.3
2022-08-05T01:36:47.242Z,21.3
2022-08-05T01:37:47.815Z,21.4
2022-08-05T01:38:49.824Z,21.4
2022-08-05T01:39:49.871Z,21.4
2022-08-05T01:40:50.815Z,21.5
2022-08-05T01:41:51.815Z,21.6
2022-08-05T01:42:52.837Z,21.6
2022-08-05T01:43:53.877Z,21.7
2022-08-05T01:44:54.854Z,21.6
2022-08-05T01:45:56.369Z,21.7
2022-08-05T01:46:56.799Z,21.7
2022-08-05T01:47:57.817Z,21.6
2022-08-05T01:48:58.858Z,21.6
2022-08-05T01:50:00.660Z,21.6
2022-08-05T01:51:08.665Z,21.5
2022-08-05T01:52:01.794Z,21.6
2022-08-05T01:53:02.814Z,21.5
2022-08-05T01:54:03.815Z,21.3
2022-08-05T01:55:04.834Z,21.2
2022-08-05T01:56:05.775Z,21.2
2022-08-05T01:58:08.903Z,21.2
2022-08-05T01:58:08.979Z,21.2
2022-08-05T01:59:08.824Z,21.2
2022-08-05T02:00:11.796Z,21.1
2022-08-05T02:01:12.018Z,21.2
2022-08-05T02:02:13.908Z,21.2
2022-08-05T02:03:16.490Z,21.2
2022-08-05T02:04:15.818Z,21.1
2022-08-05T02:05:17.256Z,21.1
2022-08-05T02:06:33.205Z,21.2
2022-08-05T02:07:21.789Z,21.2
2022-08-05T02:08:28.998Z,21.2
2022-08-05T02:09:21.814Z,21.2
2022-08-05T02:10:26.764Z,21.2
2022-08-05T02:11:24.103Z,21.2
2022-08-05T02:12:25.237Z,21.3
2022-08-05T02:13:25.866Z,21.3
2022-08-05T02:14:26.888Z,21.2
2022-08-05T02:15:31.221Z,21.2
2022-08-05T02:16:28.805Z,21.2
2022-08-05T02:18:29.206Z,21.2
2022-08-05T02:18:34.721Z,21.2
2022-08-05T02:19:33.444Z,21.2
2022-08-05T02:20:32.874Z,21
2022-08-05T02:21:43.164Z,20.9
2022-08-05T02:22:34.835Z,20.8
2022-08-05T02:23:35.853Z,20.7
2022-08-05T02:24:36.836Z,20.6
2022-08-05T02:25:49.001Z,20.6
2022-08-05T02:26:38.874Z,20.6
2022-08-05T02:27:58.827Z,20.6
2022-08-05T02:28:41.611Z,20.6
2022-08-05T02:29:59.337Z,20.5
2022-08-05T02:30:51.954Z,20.6
2022-08-05T02:31:43.914Z,20.6
2022-08-05T02:32:44.824Z,20.6
2022-08-05T02:33:45.898Z,20.7
2022-08-05T02:34:51.736Z,20.8
2022-08-05T02:35:51.103Z,20.8
2022-08-05T02:36:48.935Z,20.9
2022-08-05T02:37:54.037Z,20.8
2022-08-05T02:38:53.034Z,20.9
2022-08-05T02:39:52.235Z,20.7
2022-08-05T02:40:52.875Z,20.6
2022-08-05T02:41:57.726Z,20.5
2022-08-05T02:42:55.853Z,20.4
2022-08-05T02:44:02.205Z,20.5
2022-08-05T02:44:57.842Z,20.4
2022-08-05T02:45:58.875Z,20.4
2022-08-05T02:47:01.242Z,20.4
2022-08-05T02:48:07.749Z,20.4
2022-08-05T02:49:02.856Z,20.5
2022-08-05T02:50:03.849Z,20.5
2022-08-05T02:51:04.784Z,20.6
2022-08-05T02:52:05.840Z,20.5
2022-08-05T02:53:06.853Z,20.4
2022-08-05T02:54:07.813Z,20.5
2022-08-05T02:55:10.784Z,20.4
2022-08-05T02:56:10.894Z,20.5
2022-08-05T02:58:08.807Z,20.5
2022-08-05T02:58:13.962Z,20.5
2022-08-05T02:59:14.860Z,20.6
2022-08-05T03:00:15.902Z,20.6
2022-08-05T03:01:16.967Z,20.6
2022-08-05T03:02:18.953Z,20.6
2022-08-05T03:03:19.935Z,20.5
2022-08-05T03:04:20.893Z,20.6
2022-08-05T03:06:53.281Z,20.6
2022-08-05T03:06:53.539Z,20.6
2022-08-05T03:07:40.792Z,20.5
2022-08-05T03:08:29.967Z,20.6
2022-08-05T03:09:36.621Z,20.6
2022-08-05T03:10:30.876Z,20.6
2022-08-05T03:11:54.190Z,20.5
2022-08-05T03:12:32.895Z,20.5
2022-08-05T03:13:51.225Z,20.5
2022-08-05T03:14:34.877Z,20.4
2022-08-05T03:15:35.977Z,20.4
2022-08-05T03:16:36.831Z,20.4
2022-08-05T03:17:41.474Z,20.4
2022-08-05T03:18:38.875Z,20.4
2022-08-05T03:19:39.903Z,20.3
2022-08-05T03:20:44.658Z,20.3
2022-08-05T03:21:49.034Z,20.2
2022-08-05T03:22:43.901Z,20.3
2022-08-05T03:23:43.854Z,20.2
2022-08-05T03:24:46.878Z,20.2
2022-08-05T03:26:05.194Z,20.1
2022-08-05T03:26:49.341Z,20
2022-08-05T03:27:57.999Z,20.1
2022-08-05T03:28:49.854Z,20.1
2022-08-05T03:30:07.073Z,20.1
2022-08-05T03:31:01.714Z,20.2
2022-08-05T03:32:02.893Z,20.1
2022-08-05T03:33:03.875Z,20.1
2022-08-05T03:34:04.933Z,20.1
2022-08-05T03:35:05.894Z,20.1
2022-08-05T03:36:06.856Z,20.1
2022-08-05T03:37:07.894Z,20.1
2022-08-05T03:38:08.876Z,20.2
2022-08-05T03:39:13.236Z,20.2
2022-08-05T03:40:11.770Z,20.2
2022-08-05T03:41:12.135Z,20.2
2022-08-05T03:42:13.896Z,20.2
2022-08-05T03:43:15.867Z,20.1
2022-08-05T03:44:19.612Z,20.1
2022-08-05T03:45:22.295Z,20.1
2022-08-05T03:46:17.913Z,20.1
2022-08-05T03:47:18.954Z,20
2022-08-05T03:48:21.959Z,20.1
2022-08-05T03:49:20.894Z,20
2022-08-05T03:50:21.833Z,20
2022-08-05T03:52:35.702Z,20
2022-08-05T03:52:35.868Z,20
2022-08-05T03:55:00.720Z,20
2022-08-05T03:55:51.410Z,20.1
2022-08-05T03:55:54.465Z,20.2
2022-08-05T03:56:33.193Z,20.2
2022-08-05T03:57:29.137Z,20.2
2022-08-05T03:58:29.934Z,20.2
2022-08-05T03:59:46.698Z,20.2
2022-08-05T04:00:31.916Z,20.2
2022-08-05T04:01:33.927Z,20.3
2022-08-05T04:02:38.053Z,20.4
2022-08-05T04:03:35.902Z,20.4
2022-08-05T04:04:36.894Z,20.4
2022-08-05T04:05:38.577Z,20.5
2022-08-05T04:06:42.763Z,20.5
2022-08-05T04:07:46.774Z,20.6
2022-08-05T04:08:40.915Z,20.6
2022-08-05T04:09:53.384Z,20.6
2022-08-05T04:10:42.895Z,20.5
2022-08-05T04:11:47.772Z,20.4
2022-08-05T04:12:44.914Z,20.4
2022-08-05T04:13:49.606Z,20.4
2022-08-05T04:14:47.116Z,20.4
2022-08-05T04:15:52.945Z,20.3
2022-08-05T04:16:49.913Z,20.4
2022-08-05T04:17:55.455Z,20.5
2022-08-05T04:18:54.080Z,20.6
2022-08-05T04:19:54.009Z,20.7
2022-08-05T04:20:53.914Z,20.8
2022-08-05T04:22:05.959Z,20.8
2022-08-05T04:22:55.916Z,20.8
2022-08-05T04:23:57.084Z,20.8
2022-08-05T04:24:57.961Z,20.9
2022-08-05T04:26:00.792Z,21
2022-08-05T04:26:59.954Z,21.1
2022-08-05T04:28:05.554Z,21.1
2022-08-05T04:29:05.545Z,21.1
2022-08-05T04:30:03.644Z,21
2022-08-05T04:31:08.251Z,21.1
2022-08-05T04:32:05.913Z,21.1
2022-08-05T04:33:06.897Z,20.9
2022-08-05T04:34:19.591Z,20.9
2022-08-05T04:35:13.547Z,21
2022-08-05T04:36:11.477Z,21.1
2022-08-05T04:37:10.955Z,21.1
2022-08-05T04:38:12.223Z,21.2
2022-08-05T04:39:13.961Z,21.3
2022-08-05T04:40:14.974Z,21.3
2022-08-05T04:41:15.914Z,21.3
2022-08-05T04:42:16.961Z,21.2
2022-08-05T04:43:21.984Z,21.2
2022-08-05T04:44:21.121Z,21.2
2022-08-05T04:45:22.869Z,21.3
2022-08-05T04:46:28.060Z,21.5
2022-08-05T04:47:23.137Z,21.5
2022-08-05T04:48:27.195Z,21.6
2022-08-05T04:49:38.196Z,21.6
2022-08-05T04:50:34.585Z,21.7
2022-08-05T04:51:30.439Z,21.7
2022-08-05T04:52:28.896Z,21.8
2022-08-05T04:53:33.437Z,21.8
2022-08-05T04:54:31.434Z,21.7
2022-08-05T04:56:00.150Z,21.7
2022-08-05T04:56:37.321Z,21.8
2022-08-05T04:57:37.096Z,21.9
2022-08-05T04:58:35.948Z,21.7
2022-08-05T04:59:38.709Z,21.8
2022-08-05T05:00:37.981Z,21.8
2022-08-05T05:02:06.477Z,21.9
2022-08-05T05:02:42.082Z,21.9
2022-08-05T05:03:42.010Z,21.8
2022-08-05T05:04:44.230Z,21.7
2022-08-05T05:06:36.264Z,21.7
2022-08-05T05:06:45.021Z,21.8
2022-08-05T05:07:45.810Z,21.9
2022-08-05T05:08:45.954Z,22.1
2022-08-05T05:09:46.917Z,21.9
2022-08-05T05:10:56.043Z,22
2022-08-05T05:11:54.283Z,22
2022-08-05T05:12:50.643Z,22.2
2022-08-05T05:13:50.938Z,22.3
2022-08-05T05:14:51.913Z,22.4
2022-08-05T05:15:56.347Z,22.6
2022-08-05T05:16:54.480Z,22.7
2022-08-05T05:17:56.152Z,22.8
2022-08-05T05:19:16.699Z,22.9
2022-08-05T05:19:56.887Z,22.8
2022-08-05T05:20:58.567Z,22.7
2022-08-05T05:21:58.935Z,22.6
2022-08-05T05:23:02.177Z,22.5
2022-08-05T05:24:03.063Z,22.5
2022-08-05T05:25:01.953Z,22.5
2022-08-05T05:26:02.914Z,22.6
2022-08-05T05:27:03.946Z,22.7
2022-08-05T05:28:04.974Z,22.8
2022-08-05T05:29:10.211Z,22.9
2022-08-05T05:30:06.938Z,22.9
2022-08-05T05:31:08.840Z,22.8
2022-08-05T05:32:12.347Z,22.8
2022-08-05T05:33:16.380Z,22.9
2022-08-05T05:34:11.014Z,23
2022-08-05T05:35:12.314Z,23.1
2022-08-05T05:36:14.617Z,23.1
2022-08-05T05:37:15.111Z,23
2022-08-05T05:38:22.286Z,23
2022-08-05T05:39:16.971Z,22.9
2022-08-05T05:40:19.830Z,22.7
2022-08-05T05:41:19.953Z,22.6
2022-08-05T05:42:20.975Z,22.7
2022-08-05T05:43:28.270Z,22.7
2022-08-05T05:44:36.147Z,22.6
2022-08-05T05:45:24.642Z,22.5
2022-08-05T05:46:24.952Z,22.2
2022-08-05T05:47:30.378Z,21.9
2022-08-05T05:48:27.269Z,21.8
2022-08-05T05:49:27.949Z,21.8
2022-08-05T05:50:28.974Z,21.9
2022-08-05T05:51:29.962Z,21.9
2022-08-05T05:52:33.151Z,22
2022-08-05T05:53:31.911Z,22.2
2022-08-05T05:54:49.992Z,22.2
2022-08-05T05:55:51.221Z,22.4
2022-08-05T05:56:36.014Z,22.6
2022-08-05T05:57:42.668Z,22.7
2022-08-05T05:58:37.975Z,22.7
2022-08-05T05:59:40.230Z,22.7
2022-08-05T06:00:39.967Z,22.9
2022-08-05T06:01:40.997Z,23.1
2022-08-05T06:02:42.041Z,23.3
2022-08-05T06:03:54.240Z,23.5
2022-08-05T06:04:44.054Z,23.6
2022-08-05T06:05:45.073Z,23.7
2022-08-05T06:06:46.767Z,23.8
2022-08-05T06:07:57.666Z,24
2022-08-05T06:08:49.155Z,24.2
2022-08-05T06:09:51.283Z,24.3
2022-08-05T06:10:52.393Z,24.5
2022-08-05T06:11:59.025Z,24.6
2022-08-05T06:12:52.974Z,24.7
2022-08-05T06:13:55.478Z,24.8
2022-08-05T06:14:54.993Z,24.9
2022-08-05T06:16:27.860Z,25.1
2022-08-05T06:16:57.180Z,25.2
2022-08-05T06:17:57.953Z,25.3
2022-08-05T06:19:00.149Z,25.3
2022-08-05T06:20:00.019Z,25.3
2022-08-05T06:21:00.955Z,25.3
2022-08-05T06:22:02.018Z,25
2022-08-05T06:23:04.080Z,24.9
2022-08-05T06:24:04.053Z,24.9
2022-08-05T06:25:24.727Z,24.8
2022-08-05T06:26:13.187Z,24.9
2022-08-05T06:27:17.153Z,25
2022-08-05T06:28:09.595Z,25.1
2022-08-05T06:29:23.491Z,25
2022-08-05T06:30:18.034Z,25.1
2022-08-05T06:31:17.771Z,25.1
2022-08-05T06:32:21.647Z,25.2
2022-08-05T06:33:15.028Z,25.3
2022-08-05T06:34:15.045Z,25.4
2022-08-05T06:35:22.030Z,25.6
2022-08-05T06:36:17.034Z,25.7
2022-08-05T06:37:18.030Z,25.8
2022-08-05T06:38:35.560Z,25.8
2022-08-05T06:39:21.701Z,25.8
2022-08-05T06:40:22.022Z,25.9
2022-08-05T06:41:23.014Z,26
2022-08-05T06:42:24.074Z,26
2022-08-05T06:43:51.876Z,26
2022-08-05T06:44:26.128Z,26.1
2022-08-05T06:45:44.241Z,26.1
2022-08-05T06:46:29.954Z,26.2
2022-08-05T06:47:30.203Z,26.3
2022-08-05T06:48:46.968Z,26.3
2022-08-05T06:50:01.019Z,26.4
2022-08-05T06:50:32.013Z,26.5
2022-08-05T06:51:32.962Z,26.5
2022-08-05T06:52:37.577Z,26.6
2022-08-05T06:53:39.079Z,26.6
2022-08-05T06:54:36.046Z,26.4
2022-08-05T06:55:36.977Z,26.4
2022-08-05T06:56:38.013Z,26.4
2022-08-05T06:57:58.439Z,26.5
2022-08-05T06:58:40.231Z,26.4
2022-08-05T06:59:42.187Z,26.4
2022-08-05T07:00:42.055Z,26.5
2022-08-05T07:01:43.018Z,26.4
2022-08-05T07:02:44.056Z,26.5
2022-08-05T07:03:45.082Z,26.6
2022-08-05T07:04:46.014Z,26.6
2022-08-05T07:05:47.101Z,26.7
2022-08-05T07:06:50.245Z,26.8
2022-08-05T07:07:49.084Z,26.7
2022-08-05T07:08:51.639Z,26.7
2022-08-05T07:09:55.355Z,26.8
2022-08-05T07:10:53.882Z,26.9
2022-08-05T07:11:54.035Z,26.8
2022-08-05T07:12:56.140Z,26.8
2022-08-05T07:13:59.668Z,26.7
2022-08-05T07:14:58.150Z,26.7
2022-08-05T07:16:01.370Z,26.7
2022-08-05T07:17:58.120Z,26.7
2022-08-05T07:18:08.267Z,26.7
2022-08-05T07:19:02.142Z,26.7
2022-08-05T07:21:05.444Z,26.9
2022-08-05T07:22:07.057Z,27
2022-08-05T07:23:08.054Z,27.1
2022-08-05T07:24:09.176Z,27.2
2022-08-05T07:25:24.197Z,27.3
2022-08-05T07:26:11.102Z,27.3
2022-08-05T07:27:12.476Z,27.3
2022-08-05T07:28:17.318Z,27.4
2022-08-05T07:29:15.033Z,27.4
2022-08-05T07:30:22.424Z,27.5
2022-08-05T07:31:17.090Z,27.5
2022-08-05T07:32:18.014Z,27.4
2022-08-05T07:33:20.080Z,27.5
2022-08-05T07:34:21.304Z,27.6
2022-08-05T07:35:56.199Z,27.7
2022-08-05T07:36:23.142Z,27.8
2022-08-05T07:37:24.295Z,27.6
2022-08-05T07:38:26.305Z,27.6
2022-08-05T07:40:03.956Z,27.7
2022-08-05T07:40:32.811Z,27.8
2022-08-05T07:42:07.570Z,28
2022-08-05T07:42:31.661Z,28.1
2022-08-05T07:43:30.102Z,28.2
2022-08-05T07:44:31.017Z,28.4
2022-08-05T07:45:56.875Z,28.5
2022-08-05T07:46:33.641Z,28.4
2022-08-05T07:47:42.452Z,28.5
2022-08-05T07:48:35.132Z,28.6
2022-08-05T07:49:43.446Z,28.7
2022-08-05T07:50:37.036Z,28.8
2022-08-05T07:51:41.215Z,28.8
2022-08-05T07:52:39.054Z,29
2022-08-05T07:53:49.871Z,29.2
2022-08-05T07:54:41.315Z,29.3
2022-08-05T07:55:44.109Z,29.4
2022-08-05T07:57:03.114Z,29.4
2022-08-05T07:57:56.280Z,29.5
2022-08-05T07:58:55.145Z,29.4
2022-08-05T07:59:46.885Z,28.7
2022-08-05T08:00:47.071Z,28.3
2022-08-05T08:01:51.931Z,28.3
2022-08-05T08:03:14.380Z,28.1
2022-08-05T08:03:51.283Z,28
2022-08-05T08:04:51.095Z,28.1
2022-08-05T08:05:52.114Z,28.2
2022-08-05T08:06:53.042Z,28.5
2022-08-05T08:07:59.337Z,28.6
2022-08-05T08:09:56.339Z,28.7
2022-08-05T08:10:58.491Z,28.9
2022-08-05T08:12:03.939Z,28.9
2022-08-05T08:13:02.074Z,28.8
2022-08-05T08:14:03.074Z,28.7
2022-08-05T08:15:04.283Z,28.8
2022-08-05T08:16:34.201Z,28.9
2022-08-05T08:17:07.061Z,29.1
2022-08-05T08:18:13.738Z,29.2
2022-08-05T08:19:09.075Z,29.3
2022-08-05T08:20:23.081Z,29.4
2022-08-05T08:21:15.909Z,29.4
2022-08-05T08:22:15.817Z,29.5
2022-08-05T08:23:59.744Z,29.8
2022-08-05T08:24:15.094Z,29.9
2022-08-05T08:25:17.919Z,30
2022-08-05T08:26:18.070Z,30
2022-08-05T08:27:19.074Z,29.9
2022-08-05T08:28:35.985Z,29.9
2022-08-05T08:29:29.295Z,29.7
2022-08-05T08:30:30.299Z,29.5
2022-08-05T08:31:23.074Z,29.5
2022-08-05T08:32:27.718Z,29.6
2022-08-05T08:33:25.122Z,29.7
2022-08-05T08:34:30.087Z,29.8
2022-08-05T08:35:27.094Z,29.9
2022-08-05T08:36:37.317Z,30
2022-08-05T08:37:29.074Z,30.1
2022-08-05T08:38:32.430Z,30.1
2022-08-05T08:39:31.136Z,30.1
2022-08-05T08:40:32.155Z,30.1
2022-08-05T08:41:51.450Z,30.1
2022-08-05T08:42:46.877Z,30
2022-08-05T08:44:56.453Z,30.1
2022-08-05T08:45:21.684Z,30.1
2022-08-05T08:45:38.145Z,30.1
2022-08-05T08:46:39.078Z,30.2
2022-08-05T08:47:47.886Z,30.2
2022-08-05T08:48:41.531Z,30.1
2022-08-05T08:50:07.958Z,30.1
2022-08-05T08:50:52.699Z,30.2
2022-08-05T08:52:04.464Z,30.1
2022-08-05T08:52:47.293Z,30
2022-08-05T08:53:47.038Z,30.1
2022-08-05T08:54:48.077Z,30.2
2022-08-05T08:56:03.279Z,30.3
2022-08-05T08:56:51.134Z,30.3
2022-08-05T08:57:58.177Z,30.4
2022-08-05T08:58:53.102Z,30.5
2022-08-05T08:59:55.958Z,30.7
2022-08-05T09:00:55.113Z,30.8
2022-08-05T09:01:57.159Z,30.9
2022-08-05T09:02:57.136Z,31
2022-08-05T09:03:59.135Z,31.1
2022-08-05T09:05:16.185Z,31.1
2022-08-05T09:06:07.309Z,31.2
2022-08-05T09:07:02.109Z,31.2
2022-08-05T09:08:03.113Z,31.1
2022-08-05T09:09:04.725Z,31
2022-08-05T09:10:06.086Z,31
2022-08-05T09:11:08.060Z,31
2022-08-05T09:12:20.348Z,30.8
2022-08-05T09:13:10.062Z,30.9
2022-08-05T09:14:55.039Z,30.9
2022-08-05T09:15:12.633Z,30.9
2022-08-05T09:16:14.498Z,31.1
2022-08-05T09:17:15.844Z,31.3
2022-08-05T09:18:16.162Z,31.5
2022-08-05T09:19:17.235Z,31.5
2022-08-05T09:20:20.775Z,31.5
2022-08-05T09:21:20.576Z,31.4
2022-08-05T09:22:23.549Z,31.4
2022-08-05T09:23:22.159Z,31.4
2022-08-05T09:24:23.236Z,31.5
2022-08-05T09:26:00.504Z,31.6
2022-08-05T09:26:25.201Z,31.7
2022-08-05T09:28:03.611Z,31.7
2022-08-05T09:28:31.821Z,31.7
2022-08-05T09:29:30.831Z,31.8
2022-08-05T09:30:29.121Z,31.9
2022-08-05T09:32:38.904Z,32
2022-08-05T09:32:42.560Z,32
2022-08-05T09:33:35.027Z,31.6
2022-08-05T09:34:33.145Z,31.2
2022-08-05T09:35:34.135Z,31.3
2022-08-05T09:36:35.153Z,31.4
2022-08-05T09:38:11.866Z,31.4
2022-08-05T09:38:38.155Z,31.6
2022-08-05T09:39:46.017Z,31.7
2022-08-05T09:40:40.094Z,31.7
2022-08-05T09:41:41.194Z,31.8
2022-08-05T09:42:42.114Z,31.9
2022-08-05T09:43:43.141Z,31.9
2022-08-05T09:44:44.161Z,32
2022-08-05T09:46:05.339Z,32
2022-08-05T09:46:50.133Z,32
2022-08-05T09:47:55.756Z,32.2
2022-08-05T09:48:55.090Z,32.2
2022-08-05T09:49:54.721Z,32.3
2022-08-05T09:50:50.095Z,32.3
2022-08-05T09:51:51.173Z,32.4
2022-08-05T09:52:52.859Z,32.3
2022-08-05T09:53:53.333Z,32.3
2022-08-05T09:54:54.133Z,32.3
2022-08-05T09:55:59.075Z,32.2
2022-08-05T09:56:56.155Z,32.1
2022-08-05T09:57:58.487Z,32.2
2022-08-05T09:58:59.152Z,32.3
2022-08-05T10:00:01.813Z,32.4
2022-08-05T10:01:01.116Z,32.5
2022-08-05T10:02:02.235Z,32.4
2022-08-05T10:03:03.179Z,32.4
2022-08-05T10:04:04.243Z,32.1
2022-08-05T10:05:05.127Z,31.9
2022-08-05T10:06:07.723Z,31.6
2022-08-05T10:07:19.465Z,31.5
2022-08-05T10:08:10.553Z,31.4
2022-08-05T10:09:09.534Z,31.5
2022-08-05T10:10:14.755Z,31.6
2022-08-05T10:11:12.676Z,31.7
2022-08-05T10:12:18.393Z,31.9
2022-08-05T10:13:15.135Z,32
2022-08-05T10:14:16.175Z,32.1
2022-08-05T10:15:19.975Z,32
2022-08-05T10:16:18.197Z,32
2022-08-05T10:17:36.795Z,31.9
2022-08-05T10:18:20.362Z,31.8
2022-08-05T10:19:23.406Z,31.6
2022-08-05T10:20:22.133Z,31.7
2022-08-05T10:21:23.153Z,31.7
2022-08-05T10:22:30.162Z,31.8
2022-08-05T10:23:34.812Z,32
2022-08-05T10:24:27.394Z,32.3
2022-08-05T10:25:29.158Z,32.5
2022-08-05T10:26:31.774Z,32.6
2022-08-05T10:27:38.814Z,32.8
2022-08-05T10:28:32.335Z,32.9
2022-08-05T10:30:06.256Z,32.9
2022-08-05T10:30:42.153Z,32.9
2022-08-05T10:32:51.405Z,32.9
2022-08-05T10:32:58.257Z,32.9
2022-08-05T10:33:39.175Z,32.9
2022-08-05T10:34:40.789Z,32.6
2022-08-05T10:35:44.052Z,32.2
2022-08-05T10:36:42.194Z,32
2022-08-05T10:37:44.842Z,31.9
2022-08-05T10:38:44.928Z,31.6
2022-08-05T10:39:58.644Z,31.5
2022-08-05T10:40:47.234Z,31.5
2022-08-05T10:41:48.175Z,31.7
2022-08-05T10:42:49.134Z,31.9
2022-08-05T10:43:50.174Z,32.1
2022-08-05T10:44:51.122Z,32.3
2022-08-05T10:45:52.214Z,32.5
2022-08-05T10:46:53.910Z,32.6
2022-08-05T10:48:27.656Z,32.7
2022-08-05T10:48:57.226Z,32.7
2022-08-05T10:50:20.224Z,32.7
2022-08-05T10:50:57.188Z,32.9
2022-08-05T10:52:00.627Z,33.1
2022-08-05T10:52:59.254Z,33.4
2022-08-05T10:54:01.190Z,33.5
2022-08-05T10:55:01.155Z,33.7
2022-08-05T10:56:04.037Z,33.6
2022-08-05T10:57:03.176Z,33.7
2022-08-05T10:58:04.178Z,33.7
2022-08-05T10:59:07.077Z,33.6
2022-08-05T11:00:10.033Z,33.5
2022-08-05T11:01:08.194Z,33.4
2022-08-05T11:02:14.388Z,33.6
2022-08-05T11:03:23.994Z,33.6
2022-08-05T11:04:11.265Z,33.6
2022-08-05T11:05:13.527Z,33.5
2022-08-05T11:06:14.890Z,33
2022-08-05T11:07:15.199Z,32.7
2022-08-05T11:08:33.949Z,32.6
2022-08-05T11:09:17.392Z,32.5
2022-08-05T11:10:19.195Z,32.5
2022-08-05T11:11:20.222Z,32.5
2022-08-05T11:12:21.317Z,32.4
2022-08-05T11:13:23.206Z,32.3
2022-08-05T11:14:37.263Z,32.4
2022-08-05T11:15:59.670Z,32.4
2022-08-05T11:16:33.635Z,32.5
2022-08-05T11:17:56.966Z,32.6
2022-08-05T11:18:29.665Z,32.7
2022-08-05T11:20:11.774Z,32.9
2022-08-05T11:20:30.204Z,33.2
2022-08-05T11:21:31.155Z,33.4
2022-08-05T11:22:33.224Z,33.7
2022-08-05T11:24:02.458Z,33.8
2022-08-05T11:24:36.691Z,33.9
2022-08-05T11:26:04.034Z,34
2022-08-05T11:26:39.194Z,34.1
2022-08-05T11:27:51.554Z,34.2
2022-08-05T11:28:41.194Z,34.1
2022-08-05T11:29:42.197Z,34
2022-08-05T11:30:43.235Z,34
2022-08-05T11:31:54.674Z,34
2022-08-05T11:32:47.784Z,33.9
2022-08-05T11:33:48.041Z,34
2022-08-05T11:34:52.312Z,34
2022-08-05T11:36:04.377Z,33.8
2022-08-05T11:36:52.724Z,33.5
2022-08-05T11:38:26.937Z,33.4
2022-08-05T11:38:54.529Z,33.5
2022-08-05T11:40:00.434Z,33.5
2022-08-05T11:41:00.319Z,33.6
2022-08-05T11:42:02.174Z,33.8
2022-08-05T11:42:58.243Z,34
2022-08-05T11:44:05.283Z,34.3
2022-08-05T11:45:01.253Z,34.5
2022-08-05T11:46:14.826Z,34.6
2022-08-05T11:47:12.219Z,34.8
2022-08-05T11:48:04.256Z,34.5
2022-08-05T11:49:06.236Z,34.2
2022-08-05T11:50:08.233Z,34
2022-08-05T11:51:10.794Z,33.8
2022-08-05T11:52:12.129Z,33.7
2022-08-05T11:53:12.255Z,33.7
2022-08-05T11:54:13.869Z,33.8
2022-08-05T11:55:14.241Z,33.7
2022-08-05T11:56:15.241Z,33.6
2022-08-05T11:57:24.563Z,33.5
2022-08-05T11:58:17.653Z,33.5
2022-08-05T11:59:21.142Z,33.7
2022-08-05T12:00:19.294Z,33.8
2022-08-05T12:01:21.194Z,34
2022-08-05T12:02:24.393Z,34.2
2022-08-05T12:03:24.231Z,34.3
2022-08-05T12:04:24.194Z,34.5
2022-08-05T12:05:28.654Z,34.5
2022-08-05T12:06:26.254Z,34.6
2022-08-05T12:08:03.015Z,34.6
2022-08-05T12:08:28.274Z,34.7
2022-08-05T12:09:38.746Z,34.9
2022-08-05T12:10:38.710Z,35.1
2022-08-05T12:11:39.670Z,35.2
2022-08-05T12:12:32.218Z,35.4
2022-08-05T12:13:48.204Z,35.5
2022-08-05T12:14:34.215Z,35.4
2022-08-05T12:15:38.151Z,35.4
2022-08-05T12:16:38.335Z,35.3
2022-08-05T12:18:00.922Z,35.3
2022-08-05T12:18:38.761Z,35.2
2022-08-05T12:20:16.498Z,35.1
2022-08-05T12:20:40.615Z,34.9
2022-08-05T12:21:41.235Z,35
2022-08-05T12:22:43.274Z,34.9
2022-08-05T12:23:45.272Z,35
2022-08-05T12:24:49.360Z,34.9
2022-08-05T12:25:47.222Z,34.6
2022-08-05T12:26:48.213Z,34.3
2022-08-05T12:27:52.823Z,33.9
2022-08-05T12:28:51.278Z,33.7
2022-08-05T12:29:53.332Z,33.6
2022-08-05T12:30:53.255Z,33.7
2022-08-05T12:31:54.671Z,33.8
2022-08-05T12:32:56.319Z,33.9
2022-08-05T12:33:56.314Z,34.1
2022-08-05T12:34:57.250Z,34.1
2022-08-05T12:35:58.254Z,34.2
2022-08-05T12:36:59.243Z,34.1
2022-08-05T12:38:00.326Z,34.2
2022-08-05T12:39:01.269Z,34.3
2022-08-05T12:40:03.095Z,34.5
2022-08-05T12:41:03.294Z,34.8
2022-08-05T12:42:04.248Z,34.9
2022-08-05T12:43:06.262Z,35.1
2022-08-05T12:44:11.510Z,34.9
2022-08-05T12:45:08.849Z,34.6
2022-08-05T12:46:12.450Z,34.4
2022-08-05T12:47:12.396Z,34.3
2022-08-05T12:48:17.144Z,34.4
2022-08-05T12:49:14.180Z,34.4
2022-08-05T12:50:14.293Z,34.4
2022-08-05T12:51:21.925Z,34.3
2022-08-05T12:52:19.853Z,34.3
2022-08-05T12:53:17.335Z,34.3
2022-08-05T12:54:23.310Z,34.2
2022-08-05T12:55:21.957Z,34.2
2022-08-05T12:56:34.080Z,34.2
2022-08-05T12:57:23.385Z,34.1
2022-08-05T12:58:38.085Z,34
2022-08-05T12:59:27.409Z,33.8
2022-08-05T13:01:59.045Z,33.9
2022-08-05T13:01:59.157Z,33.8
2022-08-05T13:02:27.204Z,33.9
2022-08-05T13:03:32.146Z,34
2022-08-05T13:04:28.266Z,34.1
2022-08-05T13:05:33.816Z,34.2
2022-08-05T13:06:30.253Z,34.3
2022-08-05T13:07:56.432Z,34.3
2022-08-05T13:08:32.751Z,34.4
2022-08-05T13:09:33.233Z,34.5
2022-08-05T13:10:34.255Z,34.7
2022-08-05T13:11:35.255Z,34.9
2022-08-05T13:12:36.249Z,35.1
2022-08-05T13:14:04.354Z,35.2
2022-08-05T13:14:38.221Z,35.1
2022-08-05T13:15:41.843Z,35
2022-08-05T13:16:40.281Z,35
2022-08-05T13:17:42.453Z,35.1
2022-08-05T13:18:42.359Z,35.2
2022-08-05T13:19:51.818Z,35.1
2022-08-05T13:20:44.318Z,35.1
2022-08-05T13:21:48.126Z,35.1
2022-08-05T13:22:46.313Z,35.1
2022-08-05T13:23:50.527Z,35.2
2022-08-05T13:24:51.463Z,35
2022-08-05T13:25:51.345Z,35.2
2022-08-05T13:26:51.293Z,35.2
2022-08-05T13:27:52.311Z,35.2
2022-08-05T13:28:53.377Z,35.1
2022-08-05T13:29:59.720Z,34.9
2022-08-05T13:30:57.173Z,34.8
2022-08-05T13:32:03.592Z,34.8
2022-08-05T13:33:01.029Z,34.8
2022-08-05T13:34:20.807Z,34.7
2022-08-05T13:35:01.395Z,34.7
2022-08-05T13:36:02.354Z,34.8
2022-08-05T13:37:03.387Z,35.1
2022-08-05T13:38:04.835Z,35.3
2022-08-05T13:39:08.374Z,35.5
2022-08-05T13:40:14.813Z,35.5
2022-08-05T13:41:08.337Z,35.6